createdAt,value
2018-06-19T00:01:32.589Z,63.30
2018-06-19T00:04:00.746Z,63.20
2018-06-19T00:06:28.908Z,63.30
2018-06-19T00:08:57.069Z,63.30
2018-06-19T00:11:25.261Z,64.20
2018-06-19T00:13:53.417Z,63.40
2018-06-19T00:16:21.581Z,63.30
2018-06-19T00:18:52.001Z,63.40
2018-06-19T00:21:24.998Z,63.40
2018-06-19T00:23:53.177Z,63.40
2018-06-19T00:26:21.377Z,63.50
2018-06-19T00:28:49.554Z,63.50
2018-06-19T00:31:17.721Z,63.70
2018-06-19T00:33:45.907Z,63.60
2018-06-19T00:36:14.053Z,63.70
2018-06-19T00:38:42.237Z,63.70
2018-06-19T00:41:10.393Z,63.80
2018-06-19T00:43:38.558Z,63.80
2018-06-19T00:46:07.566Z,64.00
2018-06-19T00:48:35.733Z,64.10
2018-06-19T00:51:03.898Z,64.10
2018-06-19T00:53:32.053Z,64.70
2018-06-19T00:56:11.933Z,64.30
2018-06-19T00:58:40.142Z,64.30
2018-06-19T01:01:08.321Z,64.40
2018-06-19T01:03:36.688Z,64.50
2018-06-19T01:06:04.834Z,64.50
2018-06-19T01:08:32.990Z,64.40
2018-06-19T01:11:01.238Z,64.50
2018-06-19T01:13:29.401Z,64.40
2018-06-19T01:15:57.576Z,64.40
2018-06-19T01:18:25.720Z,64.50
2018-06-19T01:20:53.873Z,64.40
2018-06-19T01:23:22.116Z,64.50
2018-06-19T01:25:50.281Z,64.50
2018-06-19T01:28:18.508Z,64.50
2018-06-19T01:30:46.661Z,64.50
2018-06-19T01:33:14.844Z,64.50
2018-06-19T01:35:43.016Z,64.50
2018-06-19T01:38:11.464Z,64.60
2018-06-19T01:40:39.585Z,64.70
2018-06-19T01:43:07.786Z,64.70
2018-06-19T01:45:35.930Z,64.80
2018-06-19T01:48:04.110Z,64.90
2018-06-19T01:50:32.279Z,64.90
2018-06-19T01:53:00.462Z,65.00
2018-06-19T01:55:28.639Z,65.00
2018-06-19T01:57:56.826Z,65.00
2018-06-19T02:00:24.999Z,64.90
2018-06-19T02:02:53.178Z,64.90
2018-06-19T02:05:21.351Z,65.00
2018-06-19T02:07:49.501Z,65.00
2018-06-19T02:10:17.685Z,65.00
2018-06-19T02:12:45.869Z,65.00
2018-06-19T02:15:14.029Z,65.00
2018-06-19T02:17:42.259Z,64.90
2018-06-19T02:20:10.435Z,64.90
2018-06-19T02:22:38.654Z,65.00
2018-06-19T02:25:06.846Z,64.90
2018-06-19T02:27:35.019Z,64.80
2018-06-19T02:30:03.190Z,64.80
2018-06-19T02:32:31.336Z,64.70
2018-06-19T02:34:59.493Z,64.80
2018-06-19T02:37:27.635Z,64.80
2018-06-19T02:39:55.816Z,64.70
2018-06-19T02:42:24.053Z,64.70
2018-06-19T02:44:52.217Z,64.60
2018-06-19T02:47:20.386Z,64.70
2018-06-19T02:49:48.596Z,64.80
2018-06-19T02:52:16.877Z,64.70
2018-06-19T02:54:45.038Z,64.60
2018-06-19T02:57:13.251Z,64.80
2018-06-19T02:59:41.442Z,64.70
2018-06-19T03:02:09.601Z,64.70
2018-06-19T03:04:37.747Z,64.50
2018-06-19T03:07:05.933Z,64.40
2018-06-19T03:09:34.073Z,64.60
2018-06-19T03:12:02.231Z,64.50
2018-06-19T03:14:30.373Z,64.50
2018-06-19T03:16:58.541Z,64.50
2018-06-19T03:19:26.716Z,64.50
2018-06-19T03:21:54.856Z,64.50
2018-06-19T03:24:23.007Z,64.50
2018-06-19T03:26:51.165Z,64.50
2018-06-19T03:31:47.253Z,64.40
2018-06-19T03:34:15.406Z,64.30
2018-06-19T03:36:43.573Z,64.40
2018-06-19T03:39:12.413Z,64.40
2018-06-19T03:41:41.217Z,64.30
2018-06-19T03:44:09.582Z,64.30
2018-06-19T03:46:38.204Z,64.30
2018-06-19T03:49:06.362Z,64.60
2018-06-19T03:51:34.542Z,64.30
2018-06-19T03:54:02.998Z,64.30
2018-06-19T03:56:31.229Z,64.30
2018-06-19T03:58:59.398Z,64.30
2018-06-19T04:01:27.560Z,64.30
2018-06-19T04:03:55.730Z,64.40
2018-06-19T04:06:27.385Z,64.40
2018-06-19T04:08:55.544Z,64.40
2018-06-19T04:11:23.694Z,64.40
2018-06-19T04:13:51.870Z,64.40
2018-06-19T04:16:20.090Z,64.40
2018-06-19T04:18:48.321Z,64.10
2018-06-19T04:21:16.498Z,64.40
2018-06-19T04:23:44.694Z,64.50
2018-06-19T04:26:12.849Z,64.50
2018-06-19T04:28:41.021Z,64.50
2018-06-19T04:31:09.239Z,65.30
2018-06-19T04:33:37.489Z,64.60
2018-06-19T04:36:05.660Z,64.70
2018-06-19T04:38:33.871Z,64.50
2018-06-19T04:41:02.067Z,64.50
2018-06-19T04:43:30.237Z,64.50
2018-06-19T04:45:58.399Z,64.60
2018-06-19T04:48:26.576Z,64.70
2018-06-19T04:50:54.761Z,64.80
2018-06-19T04:53:22.934Z,64.80
2018-06-19T04:55:51.193Z,64.90
2018-06-19T04:58:19.364Z,64.90
2018-06-19T05:00:47.530Z,64.90
2018-06-19T05:03:15.714Z,64.90
2018-06-19T05:05:43.865Z,64.90
2018-06-19T05:08:12.041Z,65.10
2018-06-19T05:10:40.225Z,65.20
2018-06-19T05:13:08.425Z,65.20
2018-06-19T05:15:36.626Z,65.20
2018-06-19T05:18:04.946Z,65.10
2018-06-19T05:20:33.155Z,65.30
2018-06-19T05:23:01.333Z,65.30
2018-06-19T05:25:29.528Z,65.30
2018-06-19T05:27:57.713Z,65.40
2018-06-19T05:30:25.915Z,65.40
2018-06-19T05:32:54.185Z,65.50
2018-06-19T05:35:22.358Z,65.60
2018-06-19T05:37:50.582Z,65.50
2018-06-19T05:40:18.742Z,65.40
2018-06-19T05:42:46.932Z,65.60
2018-06-19T05:45:15.102Z,65.60
2018-06-19T05:47:43.269Z,66.40
2018-06-19T05:50:11.453Z,65.60
2018-06-19T05:52:39.621Z,65.80
2018-06-19T05:55:07.802Z,66.00
2018-06-19T05:57:35.962Z,66.00
2018-06-19T06:00:04.501Z,66.00
2018-06-19T06:02:32.688Z,66.00
2018-06-19T06:05:00.849Z,66.80
2018-06-19T06:07:29.023Z,66.10
2018-06-19T06:09:57.197Z,66.10
2018-06-19T06:12:25.490Z,66.20
2018-06-19T06:14:53.674Z,66.20
2018-06-19T06:17:21.863Z,66.50
2018-06-19T06:19:50.022Z,66.80
2018-06-19T06:22:18.184Z,66.80
2018-06-19T06:24:46.365Z,66.80
2018-06-19T06:27:14.537Z,66.90
2018-06-19T06:29:42.689Z,66.90
2018-06-19T06:32:10.858Z,67.10
2018-06-19T06:34:39.045Z,67.30
2018-06-19T06:37:07.229Z,67.30
2018-06-19T06:39:35.374Z,67.30
2018-06-19T06:42:03.537Z,67.40
2018-06-19T06:44:31.688Z,67.60
2018-06-19T06:46:59.864Z,67.70
2018-06-19T06:49:28.025Z,67.70
2018-06-19T06:51:56.221Z,67.70
2018-06-19T06:54:24.391Z,68.00
2018-06-19T06:56:56.946Z,68.30
2018-06-19T06:59:25.128Z,69.20
2018-06-19T07:01:53.349Z,68.40
2018-06-19T07:04:21.557Z,67.70
2018-06-19T07:06:50.485Z,68.50
2018-06-19T07:09:18.642Z,68.70
2018-06-19T07:11:46.981Z,68.80
2018-06-19T07:14:15.169Z,68.80
2018-06-19T07:16:43.343Z,68.90
2018-06-19T07:19:11.599Z,69.00
2018-06-19T07:21:39.673Z,69.00
2018-06-19T07:24:07.877Z,69.10
2018-06-19T07:26:36.097Z,69.00
2018-06-19T07:29:04.386Z,68.80
2018-06-19T07:31:32.639Z,68.70
2018-06-19T07:34:00.797Z,68.60
2018-06-19T07:36:29.005Z,68.60
2018-06-19T07:38:57.188Z,68.70
2018-06-19T07:41:25.358Z,68.80
2018-06-19T07:43:53.601Z,68.90
2018-06-19T07:46:21.691Z,69.00
2018-06-19T07:48:49.917Z,69.00
2018-06-19T07:51:18.213Z,69.00
2018-06-19T07:53:46.406Z,69.00
2018-06-19T07:56:14.593Z,69.90
2018-06-19T07:58:42.794Z,69.20
2018-06-19T08:01:10.967Z,69.20
2018-06-19T08:03:39.192Z,69.30
2018-06-19T08:08:35.364Z,69.50
2018-06-19T08:11:03.528Z,69.60
2018-06-19T08:13:31.773Z,69.60
2018-06-19T08:15:59.943Z,69.60
2018-06-19T08:18:28.161Z,69.60
2018-06-19T08:20:56.330Z,69.80
2018-06-19T08:23:24.613Z,69.90
2018-06-19T08:25:52.805Z,69.90
2018-06-19T08:28:20.978Z,70.80
2018-06-19T08:30:49.186Z,70.10
2018-06-19T08:33:17.375Z,70.30
2018-06-19T08:35:45.554Z,70.40
2018-06-19T08:38:13.777Z,70.30
2018-06-19T08:40:41.970Z,70.20
2018-06-19T08:43:10.140Z,71.10
2018-06-19T08:45:38.392Z,70.40
2018-06-19T08:48:06.598Z,70.40
2018-06-19T08:50:34.765Z,70.70
2018-06-19T08:53:02.938Z,71.00
2018-06-19T08:55:31.218Z,71.30
2018-06-19T08:57:59.426Z,71.40
2018-06-19T09:00:27.602Z,71.50
2018-06-19T09:02:55.795Z,71.40
2018-06-19T09:05:24.000Z,71.60
2018-06-19T09:07:52.231Z,71.80
2018-06-19T09:10:20.470Z,71.80
2018-06-19T09:12:48.642Z,71.80
2018-06-19T09:15:16.830Z,71.50
2018-06-19T09:17:45.017Z,71.30
2018-06-19T09:20:13.302Z,71.20
2018-06-19T09:22:41.397Z,71.40
2018-06-19T09:25:09.887Z,71.40
2018-06-19T09:27:38.063Z,71.30
2018-06-19T09:30:06.242Z,71.20
2018-06-19T09:32:34.509Z,71.20
2018-06-19T09:35:02.718Z,71.50
2018-06-19T09:37:30.924Z,71.50
2018-06-19T09:39:59.102Z,71.40
2018-06-19T09:42:27.337Z,71.30
2018-06-19T09:44:55.520Z,71.20
2018-06-19T09:47:23.725Z,71.30
2018-06-19T09:49:52.005Z,71.20
2018-06-19T09:52:20.198Z,70.90
2018-06-19T09:54:48.373Z,71.00
2018-06-19T09:57:16.565Z,71.10
2018-06-19T09:59:44.725Z,71.10
2018-06-19T10:02:13.222Z,71.10
2018-06-19T10:04:41.379Z,71.00
2018-06-19T10:07:09.574Z,71.80
2018-06-19T10:09:37.737Z,71.00
2018-06-19T10:12:05.965Z,71.10
2018-06-19T10:14:34.110Z,71.20
2018-06-19T10:17:02.290Z,71.40
2018-06-19T10:19:30.499Z,71.40
2018-06-19T10:21:58.657Z,71.40
2018-06-19T10:24:26.833Z,71.50
2018-06-19T10:26:55.046Z,71.40
2018-06-19T10:29:23.341Z,71.40
2018-06-19T10:31:51.519Z,71.30
2018-06-19T10:34:19.717Z,71.30
2018-06-19T10:36:47.885Z,71.30
2018-06-19T10:39:16.062Z,71.40
2018-06-19T10:41:44.321Z,71.50
2018-06-19T10:44:12.541Z,72.00
2018-06-19T10:46:40.722Z,71.40
2018-06-19T10:49:08.927Z,71.30
2018-06-19T10:51:37.133Z,71.40
2018-06-19T10:54:05.333Z,71.40
2018-06-19T10:56:33.558Z,71.50
2018-06-19T10:59:01.786Z,71.70
2018-06-19T11:01:29.980Z,71.70
2018-06-19T11:03:58.158Z,71.80
2018-06-19T11:06:26.313Z,72.00
2018-06-19T11:08:54.540Z,71.90
2018-06-19T11:11:22.702Z,71.90
2018-06-19T11:13:51.714Z,71.80
2018-06-19T11:16:19.898Z,71.90
2018-06-19T11:18:48.080Z,72.20
2018-06-19T11:21:16.317Z,72.50
2018-06-19T11:23:44.476Z,72.30
2018-06-19T11:26:12.908Z,72.20
2018-06-19T11:28:41.053Z,72.30
2018-06-19T11:31:09.274Z,72.40
2018-06-19T11:36:05.389Z,72.40
2018-06-19T11:38:33.562Z,72.20
2018-06-19T11:41:01.708Z,72.30
2018-06-19T11:43:29.913Z,72.10
2018-06-19T11:45:58.085Z,71.90
2018-06-19T11:48:26.256Z,71.60
2018-06-19T11:50:54.543Z,72.30
2018-06-19T11:53:22.718Z,71.50
2018-06-19T11:55:50.978Z,71.80
2018-06-19T11:58:19.161Z,71.80
2018-06-19T12:00:47.377Z,71.60
2018-06-19T12:03:15.713Z,71.50
2018-06-19T12:05:43.997Z,71.60
2018-06-19T12:08:12.194Z,71.50
2018-06-19T12:10:40.375Z,71.20
2018-06-19T12:13:08.653Z,71.00
2018-06-19T12:15:36.783Z,71.10
2018-06-19T12:18:05.122Z,71.00
2018-06-19T12:20:33.282Z,71.00
2018-06-19T12:23:01.470Z,71.00
2018-06-19T12:25:29.655Z,70.80
2018-06-19T12:27:57.963Z,70.70
2018-06-19T12:30:26.150Z,70.80
2018-06-19T12:32:54.329Z,70.70
2018-06-19T12:35:22.530Z,70.60
2018-06-19T12:37:50.703Z,70.40
2018-06-19T12:40:24.477Z,70.70
2018-06-19T12:42:52.679Z,70.70
2018-06-19T12:45:20.811Z,70.60
2018-06-19T12:47:49.040Z,70.90
2018-06-19T12:51:28.898Z,71.20
2018-06-19T12:54:08.702Z,71.10
2018-06-19T12:56:36.974Z,70.90
2018-06-19T12:59:06.136Z,70.60
2018-06-19T13:01:34.482Z,70.50
2018-06-19T13:04:14.154Z,70.40
2018-06-19T13:06:44.536Z,70.10
2018-06-19T13:09:12.988Z,69.50
2018-06-19T13:11:41.170Z,69.40
2018-06-19T13:14:21.418Z,70.40
2018-06-19T13:17:01.174Z,69.70
2018-06-19T13:19:40.660Z,69.50
2018-06-19T13:22:08.981Z,69.50
2018-06-19T13:24:37.145Z,69.20
2018-06-19T13:27:05.318Z,69.00
2018-06-19T13:29:47.225Z,69.00
2018-06-19T13:34:43.377Z,70.20
2018-06-19T13:37:11.561Z,69.40
2018-06-19T13:39:40.438Z,69.00
2018-06-19T13:42:33.846Z,69.20
2018-06-19T13:45:04.553Z,69.50
2018-06-19T13:47:32.740Z,69.30
2018-06-19T13:50:01.196Z,69.10
2018-06-19T13:52:29.456Z,69.20
2018-06-19T13:56:06.381Z,68.90
2018-06-19T13:58:35.032Z,68.50
2018-06-19T14:03:31.194Z,68.30
2018-06-19T14:05:59.382Z,68.20
2018-06-19T14:09:42.514Z,68.20
2018-06-19T14:12:23.758Z,68.10
2018-06-19T14:14:53.803Z,67.80
2018-06-19T14:17:22.397Z,68.00
2018-06-19T14:19:50.606Z,67.90
2018-06-19T14:22:18.777Z,67.90
2018-06-19T14:24:47.413Z,67.80
2018-06-19T14:27:15.613Z,67.60
2018-06-19T14:29:43.789Z,67.40
2018-06-19T14:32:11.952Z,67.20
2018-06-19T14:34:40.124Z,67.10
2018-06-19T14:37:08.426Z,67.10
2018-06-19T14:39:36.689Z,67.10
2018-06-19T14:42:04.940Z,67.00
2018-06-19T14:44:33.266Z,67.60
2018-06-19T14:47:01.512Z,67.60
2018-06-19T14:49:29.656Z,66.90
2018-06-19T14:51:57.844Z,66.90
2018-06-19T14:54:26.194Z,67.90
2018-06-19T14:56:54.454Z,68.10
2018-06-19T14:59:22.608Z,67.50
2018-06-19T15:01:50.813Z,67.80
2018-06-19T15:04:18.986Z,67.90
2018-06-19T15:06:47.162Z,68.30
2018-06-19T15:09:15.596Z,68.50
2018-06-19T15:11:43.769Z,68.50
2018-06-19T15:14:11.930Z,68.40
2018-06-19T15:16:40.247Z,68.50
2018-06-19T15:19:08.411Z,68.50
2018-06-19T15:21:36.634Z,68.40
2018-06-19T15:24:04.841Z,68.40
2018-06-19T15:26:32.973Z,68.50
2018-06-19T15:29:01.175Z,68.50
2018-06-19T15:31:29.366Z,68.70
2018-06-19T15:33:57.513Z,68.70
2018-06-19T15:36:25.725Z,68.80
2018-06-19T15:38:53.917Z,69.60
2018-06-19T15:41:22.085Z,68.70
2018-06-19T15:43:50.237Z,69.40
2018-06-19T15:46:18.405Z,68.50
2018-06-19T15:48:46.617Z,68.20
2018-06-19T15:51:14.901Z,67.90
2018-06-19T15:56:11.075Z,67.70
2018-06-19T15:58:39.533Z,67.70
2018-06-19T16:01:07.743Z,67.70
2018-06-19T16:03:35.988Z,67.90
2018-06-19T16:06:04.207Z,68.10
2018-06-19T16:08:32.414Z,68.20
2018-06-19T16:11:00.879Z,68.20
2018-06-19T16:13:29.144Z,68.20
2018-06-19T16:15:58.001Z,68.20
2018-06-19T16:18:26.196Z,68.20
2018-06-19T16:20:54.595Z,68.20
2018-06-19T16:23:22.814Z,68.10
2018-06-19T16:25:51.082Z,68.20
2018-06-19T16:28:19.384Z,68.50
2018-06-19T16:30:47.645Z,68.90
2018-06-19T16:33:15.906Z,69.00
2018-06-19T16:35:44.278Z,69.40
2018-06-19T16:38:12.471Z,69.80
2018-06-19T16:43:08.686Z,70.10
2018-06-19T16:45:36.874Z,70.30
2018-06-19T16:48:05.086Z,70.50
2018-06-19T16:50:33.281Z,70.80
2018-06-19T16:53:01.634Z,70.80
2018-06-19T16:55:29.912Z,70.80
2018-06-19T16:57:58.080Z,71.60
2018-06-19T17:00:26.357Z,70.80
2018-06-19T17:02:54.591Z,70.80
2018-06-19T17:05:22.762Z,70.70
2018-06-19T17:07:50.985Z,71.50
2018-06-19T17:10:19.174Z,70.80
2018-06-19T17:12:47.328Z,70.90
2018-06-19T17:15:15.526Z,71.00
2018-06-19T17:17:43.833Z,71.10
2018-06-19T17:20:12.026Z,71.10
2018-06-19T17:22:40.205Z,70.70
2018-06-19T17:25:08.402Z,71.30
2018-06-19T17:27:36.599Z,71.30
2018-06-19T17:30:05.104Z,71.20
2018-06-19T17:32:33.243Z,71.20
2018-06-19T17:35:01.426Z,71.10
2018-06-19T17:37:29.650Z,70.80
2018-06-19T17:39:57.882Z,70.40
2018-06-19T17:42:26.014Z,70.30
2018-06-19T17:44:54.263Z,70.30
2018-06-19T17:47:22.602Z,70.30
2018-06-19T17:49:50.807Z,70.40
2018-06-19T17:52:19.040Z,70.10
2018-06-19T17:54:47.230Z,70.00
2018-06-19T17:57:15.455Z,70.00
2018-06-19T17:59:43.726Z,70.10
2018-06-19T18:02:13.529Z,70.20
2018-06-19T18:04:41.698Z,70.20
2018-06-19T18:07:09.877Z,70.20
2018-06-19T18:09:38.052Z,70.20
2018-06-19T18:12:06.416Z,70.40
2018-06-19T18:14:34.582Z,70.40
2018-06-19T18:17:02.769Z,70.70
2018-06-19T18:19:30.942Z,70.50
2018-06-19T18:21:59.191Z,70.70
2018-06-19T18:24:27.362Z,70.90
2018-06-19T18:26:55.750Z,71.10
2018-06-19T18:29:23.925Z,71.20
2018-06-19T18:31:52.169Z,71.30
2018-06-19T18:34:20.426Z,71.40
2018-06-19T18:36:48.614Z,71.40
2018-06-19T18:39:16.796Z,72.30
2018-06-19T18:41:45.015Z,71.50
2018-06-19T18:44:13.274Z,71.50
2018-06-19T18:46:41.524Z,71.70
2018-06-19T18:49:09.709Z,71.60
2018-06-19T18:51:37.910Z,71.80
2018-06-19T18:54:06.257Z,71.70
2018-06-19T18:56:34.603Z,71.70
2018-06-19T18:59:02.907Z,71.80
2018-06-19T19:01:31.333Z,71.90
2018-06-19T19:03:59.540Z,72.00
2018-06-19T19:06:27.783Z,71.90
2018-06-19T19:08:56.009Z,71.80
2018-06-19T19:11:24.205Z,71.80
2018-06-19T19:13:52.693Z,71.70
2018-06-19T19:17:25.985Z,71.70
2018-06-19T19:19:54.206Z,71.60
2018-06-19T19:22:22.386Z,71.50
2018-06-19T19:24:50.558Z,71.70
2018-06-19T19:27:24.005Z,71.80
2018-06-19T19:29:52.257Z,71.70
2018-06-19T19:32:21.245Z,71.60
2018-06-19T19:34:49.479Z,71.70
2018-06-19T19:37:23.105Z,71.70
2018-06-19T19:39:51.313Z,71.80
2018-06-19T19:42:19.487Z,71.60
2018-06-19T19:44:47.682Z,71.60
2018-06-19T19:47:21.200Z,71.70
2018-06-19T19:49:49.394Z,71.70
2018-06-19T19:52:17.589Z,71.70
2018-06-19T19:54:45.783Z,71.70
2018-06-19T19:57:19.381Z,71.80
2018-06-19T19:59:47.623Z,71.80
2018-06-19T20:02:15.729Z,71.90
2018-06-19T20:04:43.936Z,71.90
2018-06-19T20:07:12.253Z,71.90
2018-06-19T20:09:40.458Z,71.90
2018-06-19T20:12:08.751Z,71.90
2018-06-19T20:14:36.946Z,71.90
2018-06-19T20:17:05.342Z,72.00
2018-06-19T20:22:01.459Z,71.90
2018-06-19T20:24:29.633Z,71.90
2018-06-19T20:26:57.833Z,72.00
2018-06-19T20:29:26.056Z,72.00
2018-06-19T20:31:54.293Z,72.00
2018-06-19T20:34:22.496Z,72.00
2018-06-19T20:36:50.674Z,72.10
2018-06-19T20:39:18.892Z,72.10
2018-06-19T20:41:47.082Z,72.20
2018-06-19T20:46:43.299Z,72.20
2018-06-19T20:49:11.573Z,72.20
2018-06-19T20:51:39.775Z,72.30
2018-06-19T20:54:07.985Z,72.30
2018-06-19T20:56:36.190Z,72.30
2018-06-19T20:59:04.474Z,72.40
2018-06-19T21:01:32.657Z,72.40
2018-06-19T21:06:28.854Z,72.40
2018-06-19T21:08:57.022Z,72.40
2018-06-19T21:11:25.221Z,72.40
2018-06-19T21:13:53.445Z,72.40
2018-06-19T21:16:21.734Z,72.50
2018-06-19T21:18:49.956Z,72.50
2018-06-19T21:21:18.154Z,72.70
2018-06-19T21:23:46.402Z,72.70
2018-06-19T21:26:14.641Z,72.80
2018-06-19T21:28:42.826Z,72.80
2018-06-19T21:31:11.051Z,72.80
2018-06-19T21:33:39.301Z,72.80
2018-06-19T21:36:07.537Z,72.80
2018-06-19T21:38:35.652Z,72.90
2018-06-19T21:41:03.902Z,72.80
2018-06-19T21:43:32.115Z,72.90
2018-06-19T21:46:00.828Z,73.00
2018-06-19T21:48:29.058Z,72.90
2018-06-19T21:50:57.294Z,73.00
2018-06-19T21:53:26.221Z,73.00
2018-06-19T21:55:54.806Z,73.00
2018-06-19T21:58:23.299Z,73.00
2018-06-19T22:00:51.470Z,73.00
2018-06-19T22:03:20.094Z,73.00
2018-06-19T22:05:48.278Z,73.00
2018-06-19T22:08:16.471Z,73.00
2018-06-19T22:10:44.713Z,73.00
2018-06-19T22:13:12.957Z,73.00
2018-06-19T22:15:41.113Z,73.00
2018-06-19T22:18:09.414Z,73.00
2018-06-19T22:20:37.589Z,73.00
2018-06-19T22:23:05.843Z,73.10
2018-06-19T22:25:34.033Z,73.10
2018-06-19T22:28:02.205Z,73.10
2018-06-19T22:30:30.385Z,74.00
2018-06-19T22:32:58.559Z,73.20
2018-06-19T22:35:26.778Z,73.10
2018-06-19T22:37:54.950Z,74.00
2018-06-19T22:40:23.135Z,73.10
2018-06-19T22:42:51.330Z,73.10
2018-06-19T22:45:19.533Z,73.10
2018-06-19T22:47:47.757Z,73.20
2018-06-19T22:50:15.946Z,73.20
2018-06-19T22:52:44.139Z,73.20
2018-06-19T22:55:12.399Z,73.20
2018-06-19T22:57:40.645Z,73.20
2018-06-19T23:00:08.954Z,73.20
2018-06-19T23:02:37.210Z,73.30
2018-06-19T23:05:05.494Z,73.30
2018-06-19T23:07:33.714Z,73.40
2018-06-19T23:10:01.934Z,73.40
2018-06-19T23:12:30.111Z,73.50
2018-06-19T23:14:58.398Z,73.50
2018-06-19T23:17:26.582Z,73.50
2018-06-19T23:19:54.862Z,73.40
2018-06-19T23:22:23.088Z,73.40
2018-06-19T23:24:51.300Z,73.60
2018-06-19T23:27:19.610Z,73.60
2018-06-19T23:29:47.874Z,73.60
2018-06-19T23:32:16.130Z,73.70
2018-06-19T23:34:44.336Z,73.60
2018-06-19T23:37:12.753Z,73.70
2018-06-19T23:39:40.992Z,73.70
2018-06-19T23:42:09.174Z,73.70
2018-06-19T23:44:37.415Z,73.80
2018-06-19T23:47:05.624Z,73.80
2018-06-19T23:49:33.941Z,73.70
2018-06-19T23:52:02.102Z,73.90
2018-06-19T23:54:30.278Z,73.80
2018-06-19T23:56:58.463Z,74.00
2018-06-19T23:59:26.647Z,74.00
